Time,TemperatureF,DewpointF,PressureIn,WindDirection,WindDirectionDegrees,WindSpeedMPH,WindSpeedGustMPH,Humidity,HourlyPrecipIn,Conditions,Clouds,dailyrainin,SolarRadiationWatts/m^2,SoftwareType,DateUTC
2013-02-26 01:21:00,19.0,12.0,30.15,West,262,3.0,8.0,74,-99.99,,,-99.99,0.000000,,2013-02-26 09:21:00,
2013-02-26 01:40:00,23.0,15.0,30.16,NNW,334,6.0,7.0,70,-99.99,,,-99.99,0.000000,,2013-02-26 09:40:00,
2013-02-26 02:21:00,23.0,15.0,30.16,NNW,334,6.0,7.0,70,-99.99,,,-99.99,0.000000,,2013-02-26 10:21:00,
2013-02-26 02:31:00,23.0,15.0,30.16,NNW,334,6.0,7.0,70,-99.99,,,-99.99,0.000000,,2013-02-26 10:31:00,
2013-02-26 03:21:00,20.0,14.0,30.17,SSW,194,5.0,7.0,78,-99.99,,,-99.99,0.000000,,2013-02-26 11:21:00,
2013-02-26 04:22:00,18.0,12.0,30.18,South,169,5.0,8.0,77,-99.99,,,-99.99,0.000000,,2013-02-26 12:22:00,
2013-02-26 05:21:00,16.0,12.0,30.20,SE,143,3.0,5.0,82,-99.99,,,-99.99,0.000000,,2013-02-26 13:21:00,
2013-02-26 06:21:00,18.0,12.0,30.23,SSE,151,3.0,5.0,78,-99.99,,,-99.99,0.000000,,2013-02-26 14:21:00,
2013-02-26 06:31:00,18.0,12.0,30.23,SSE,151,3.0,5.0,78,-99.99,,,-99.99,0.000000,,2013-02-26 14:31:00,
2013-02-26 07:21:00,15.0,11.0,30.24,SW,224,3.0,4.0,82,-99.99,,,-99.99,10.000000,,2013-02-26 15:21:00,
2013-02-26 07:40:00,24.0,16.0,30.26,SE,146,4.0,5.0,72,-99.99,,,-99.99,160.000000,,2013-02-26 15:40:00,
2013-02-26 08:22:00,24.0,16.0,30.26,SE,146,4.0,5.0,72,-99.99,,,-99.99,160.000000,,2013-02-26 16:22:00,
2013-02-26 08:31:00,24.0,16.0,30.26,SE,146,4.0,5.0,72,-99.99,,,-99.99,160.000000,,2013-02-26 16:31:00,
2013-02-26 08:40:00,30.0,16.0,30.25,NNW,345,2.0,3.0,54,-99.99,,,-99.99,360.000000,,2013-02-26 16:40:00,
2013-02-26 09:21:00,30.0,16.0,30.25,NNW,345,2.0,3.0,54,-99.99,,,-99.99,360.000000,,2013-02-26 17:21:00,
2013-02-26 09:32:00,30.0,16.0,30.25,NNW,345,2.0,3.0,54,-99.99,,,-99.99,360.000000,,2013-02-26 17:32:00,
2013-02-26 10:40:00,37.0,12.0,30.22,North,353,5.0,11.0,35,-99.99,,,-99.99,670.000000,,2013-02-26 18:40:00,
2013-02-26 11:22:00,37.0,12.0,30.22,North,353,5.0,11.0,35,-99.99,,,-99.99,670.000000,,2013-02-26 19:22:00,
2013-02-26 11:31:00,37.0,12.0,30.22,North,353,5.0,11.0,35,-99.99,,,-99.99,670.000000,,2013-02-26 19:31:00,
2013-02-26 11:40:00,40.0,11.0,30.21,NE,46,4.0,10.0,30,-99.99,,,-99.99,760.000000,,2013-02-26 19:40:00,
2013-02-26 12:21:00,40.0,11.0,30.21,NE,46,4.0,10.0,30,-99.99,,,-99.99,760.000000,,2013-02-26 20:21:00,
2013-02-26 12:31:00,40.0,11.0,30.21,NE,46,4.0,10.0,30,-99.99,,,-99.99,760.000000,,2013-02-26 20:31:00,
2013-02-26 12:40:00,43.0,2.0,30.20,North,353,4.0,10.0,18,-99.99,,,-99.99,760.000000,,2013-02-26 20:40:00,
2013-02-26 13:21:00,43.0,2.0,30.20,North,353,4.0,10.0,18,-99.99,,,-99.99,760.000000,,2013-02-26 21:21:00,
2013-02-26 13:31:00,43.0,2.0,30.20,North,353,4.0,10.0,18,-99.99,,,-99.99,760.000000,,2013-02-26 21:31:00,
2013-02-26 13:40:00,45.0,4.0,30.19,NNE,24,5.0,11.0,18,-99.99,,,-99.99,700.000000,,2013-02-26 21:40:00,
2013-02-26 14:21:00,45.0,4.0,30.19,NNE,24,5.0,11.0,18,-99.99,,,-99.99,700.000000,,2013-02-26 22:21:00,
2013-02-26 14:31:00,45.0,4.0,30.19,NNE,24,5.0,11.0,18,-99.99,,,-99.99,700.000000,,2013-02-26 22:31:00,
2013-02-26 14:40:00,46.0,2.0,30.17,North,349,4.0,10.0,16,-99.99,,,-99.99,580.000000,,2013-02-26 22:40:00,
2013-02-26 15:21:00,46.0,2.0,30.17,North,349,4.0,10.0,16,-99.99,,,-99.99,580.000000,,2013-02-26 23:21:00,
2013-02-26 15:31:00,46.0,2.0,30.17,North,349,4.0,10.0,16,-99.99,,,-99.99,580.000000,,2013-02-26 23:31:00,
2013-02-26 15:40:00,46.0,4.0,30.18,NNW,337,8.0,12.0,17,-99.99,,,-99.99,410.000000,,2013-02-26 23:40:00,
2013-02-26 16:21:00,46.0,4.0,30.18,NNW,337,8.0,12.0,17,-99.99,,,-99.99,410.000000,,2013-02-27 00:21:00,
2013-02-26 16:31:00,46.0,4.0,30.18,NNW,337,8.0,12.0,17,-99.99,,,-99.99,410.000000,,2013-02-27 00:31:00,
2013-02-26 16:40:00,45.0,8.0,30.19,North,11,6.0,10.0,22,-99.99,,,-99.99,160.000000,,2013-02-27 00:40:00,
2013-02-26 17:21:00,45.0,8.0,30.19,North,11,6.0,10.0,22,-99.99,,,-99.99,160.000000,,2013-02-27 01:21:00,
2013-02-26 17:31:00,45.0,8.0,30.19,North,11,6.0,10.0,22,-99.99,,,-99.99,160.000000,,2013-02-27 01:31:00,
2013-02-26 18:40:00,33.0,12.0,30.22,NNW,348,7.0,8.0,40,-99.99,,,-99.99,0.000000,,2013-02-27 02:40:00,
2013-02-26 19:21:00,33.0,12.0,30.22,NNW,348,7.0,8.0,40,-99.99,,,-99.99,0.000000,,2013-02-27 03:21:00,
2013-02-26 19:32:00,33.0,12.0,30.22,NNW,348,7.0,8.0,40,-99.99,,,-99.99,0.000000,,2013-02-27 03:32:00,
2013-02-26 19:40:00,34.0,10.0,30.24,NW,305,5.0,6.0,37,-99.99,,,-99.99,0.000000,,2013-02-27 03:40:00,
2013-02-26 20:21:00,34.0,10.0,30.24,NW,305,5.0,6.0,37,-99.99,,,-99.99,0.000000,,2013-02-27 04:21:00,
2013-02-26 20:31:00,34.0,10.0,30.24,NW,305,5.0,6.0,37,-99.99,,,-99.99,0.000000,,2013-02-27 04:31:00,
2013-02-26 20:40:00,25.0,11.0,30.24,ESE,118,5.0,6.0,53,-99.99,,,-99.99,0.000000,,2013-02-27 04:40:00,
2013-02-26 21:22:00,25.0,11.0,30.24,ESE,118,5.0,6.0,53,-99.99,,,-99.99,0.000000,,2013-02-27 05:22:00,
2013-02-26 21:40:00,26.0,13.0,30.26,SW,217,2.0,4.0,56,-99.99,,,-99.99,0.000000,,2013-02-27 05:40:00,
2013-02-26 22:21:00,26.0,13.0,30.26,SW,217,2.0,4.0,56,-99.99,,,-99.99,0.000000,,2013-02-27 06:21:00,
2013-02-26 22:32:00,26.0,13.0,30.26,SW,217,2.0,4.0,56,-99.99,,,-99.99,0.000000,,2013-02-27 06:32:00,
2013-02-26 23:21:00,16.0,8.0,30.26,SE,143,1.0,3.0,70,-99.99,,,-99.99,0.000000,,2013-02-27 07:21:00,
2013-02-26 23:40:00,22.0,9.0,30.25,East,79,3.0,3.0,57,-99.99,,,-99.99,0.000000,,2013-02-27 07:40:00,